sensor_id;sensor_type;location;lat;lon;timestamp;P1;durP1;ratioP1;P2;durP2;ratioP2
7116;SDS011;3600;48.568;7.870;2023-03-03T00:00:03;35.57;;;24.60;;
7116;SDS011;3600;48.568;7.870;2023-03-03T00:02:31;38.13;;;25.10;;
7116;SDS011;3600;48.568;7.870;2023-03-03T00:04:58;39.73;;;26.40;;
7116;SDS011;3600;48.568;7.870;2023-03-03T00:07:24;35.50;;;23.77;;
7116;SDS011;3600;48.568;7.870;2023-03-03T00:09:51;38.70;;;25.27;;
7116;SDS011;3600;48.568;7.870;2023-03-03T00:14:52;34.90;;;23.07;;
7116;SDS011;3600;48.568;7.870;2023-03-03T00:17:21;35.93;;;23.67;;
7116;SDS011;3600;48.568;7.870;2023-03-03T00:19:53;33.17;;;23.30;;
7116;SDS011;3600;48.568;7.870;2023-03-03T00:22:30;36.73;;;23.33;;
7116;SDS011;3600;48.568;7.870;2023-03-03T00:28:07;38.70;;;24.37;;
7116;SDS011;3600;48.568;7.870;2023-03-03T00:30:42;36.57;;;24.40;;
7116;SDS011;3600;48.568;7.870;2023-03-03T00:33:24;34.03;;;23.27;;
7116;SDS011;3600;48.568;7.870;2023-03-03T00:35:58;33.67;;;22.97;;
7116;SDS011;3600;48.568;7.870;2023-03-03T00:38:40;37.07;;;24.17;;
7116;SDS011;3600;48.568;7.870;2023-03-03T00:46:51;31.77;;;22.10;;
7116;SDS011;3600;48.568;7.870;2023-03-03T00:49:23;31.27;;;22.70;;
7116;SDS011;3600;48.568;7.870;2023-03-03T00:51:52;33.83;;;21.80;;
7116;SDS011;3600;48.568;7.870;2023-03-03T00:54:19;33.43;;;22.53;;
7116;SDS011;3600;48.568;7.870;2023-03-03T00:56:46;33.47;;;22.40;;
7116;SDS011;3600;48.568;7.870;2023-03-03T00:59:13;31.83;;;22.10;;
7116;SDS011;3600;48.568;7.870;2023-03-03T01:01:40;30.97;;;21.27;;
7116;SDS011;3600;48.568;7.870;2023-03-03T01:04:06;38.27;;;22.63;;
7116;SDS011;3600;48.568;7.870;2023-03-03T01:06:33;34.00;;;22.33;;
7116;SDS011;3600;48.568;7.870;2023-03-03T01:09:00;37.00;;;22.10;;
7116;SDS011;3600;48.568;7.870;2023-03-03T01:11:27;40.47;;;23.50;;
7116;SDS011;3600;48.568;7.870;2023-03-03T01:13:54;34.57;;;21.67;;
7116;SDS011;3600;48.568;7.870;2023-03-03T01:16:22;31.97;;;21.90;;
7116;SDS011;3600;48.568;7.870;2023-03-03T01:18:48;31.90;;;21.70;;
7116;SDS011;3600;48.568;7.870;2023-03-03T01:21:15;34.90;;;23.97;;
7116;SDS011;3600;48.568;7.870;2023-03-03T01:23:43;34.03;;;22.90;;
7116;SDS011;3600;48.568;7.870;2023-03-03T01:26:09;37.97;;;21.50;;
7116;SDS011;3600;48.568;7.870;2023-03-03T01:28:36;33.00;;;22.37;;
7116;SDS011;3600;48.568;7.870;2023-03-03T01:31:03;33.57;;;22.87;;
7116;SDS011;3600;48.568;7.870;2023-03-03T01:33:32;35.20;;;22.17;;
7116;SDS011;3600;48.568;7.870;2023-03-03T01:36:00;33.07;;;22.70;;
7116;SDS011;3600;48.568;7.870;2023-03-03T01:38:28;32.70;;;22.43;;
7116;SDS011;3600;48.568;7.870;2023-03-03T01:40:56;37.03;;;22.60;;
7116;SDS011;3600;48.568;7.870;2023-03-03T01:43:28;32.77;;;22.67;;
7116;SDS011;3600;48.568;7.870;2023-03-03T01:48:37;35.07;;;22.53;;
7116;SDS011;3600;48.568;7.870;2023-03-03T01:51:21;31.70;;;22.10;;
7116;SDS011;3600;48.568;7.870;2023-03-03T01:54:02;35.00;;;22.07;;
7116;SDS011;3600;48.568;7.870;2023-03-03T01:56:31;30.40;;;20.67;;
7116;SDS011;3600;48.568;7.870;2023-03-03T01:59:06;32.90;;;22.23;;
7116;SDS011;3600;48.568;7.870;2023-03-03T02:01:38;32.27;;;20.67;;
7116;SDS011;3600;48.568;7.870;2023-03-03T02:04:07;39.00;;;22.77;;
7116;SDS011;3600;48.568;7.870;2023-03-03T02:06:36;37.00;;;22.87;;
7116;SDS011;3600;48.568;7.870;2023-03-03T02:09:08;34.10;;;20.87;;
7116;SDS011;3600;48.568;7.870;2023-03-03T02:11:44;35.43;;;22.27;;
7116;SDS011;3600;48.568;7.870;2023-03-03T02:14:17;37.07;;;21.87;;
7116;SDS011;3600;48.568;7.870;2023-03-03T02:16:44;34.17;;;22.90;;
7116;SDS011;3600;48.568;7.870;2023-03-03T02:19:23;37.73;;;23.40;;
7116;SDS011;3600;48.568;7.870;2023-03-03T02:22:09;33.27;;;21.77;;
7116;SDS011;3600;48.568;7.870;2023-03-03T02:24:42;32.17;;;22.53;;
7116;SDS011;3600;48.568;7.870;2023-03-03T02:27:14;34.23;;;21.03;;
7116;SDS011;3600;48.568;7.870;2023-03-03T02:29:40;31.00;;;19.47;;
7116;SDS011;3600;48.568;7.870;2023-03-03T02:32:07;31.10;;;21.33;;
7116;SDS011;3600;48.568;7.870;2023-03-03T02:34:45;30.00;;;21.33;;
7116;SDS011;3600;48.568;7.870;2023-03-03T02:37:13;37.50;;;25.27;;
7116;SDS011;3600;48.568;7.870;2023-03-03T02:39:39;38.10;;;24.00;;
7116;SDS011;3600;48.568;7.870;2023-03-03T02:44:43;32.03;;;21.67;;
7116;SDS011;3600;48.568;7.870;2023-03-03T02:47:11;33.43;;;21.93;;
7116;SDS011;3600;48.568;7.870;2023-03-03T02:49:37;32.33;;;22.50;;
7116;SDS011;3600;48.568;7.870;2023-03-03T02:52:05;33.83;;;20.27;;
7116;SDS011;3600;48.568;7.870;2023-03-03T02:54:36;31.70;;;21.57;;
7116;SDS011;3600;48.568;7.870;2023-03-03T02:57:04;32.77;;;22.83;;
7116;SDS011;3600;48.568;7.870;2023-03-03T02:59:31;31.80;;;20.87;;
7116;SDS011;3600;48.568;7.870;2023-03-03T03:01:58;36.60;;;22.10;;
7116;SDS011;3600;48.568;7.870;2023-03-03T03:04:25;35.63;;;22.17;;
7116;SDS011;3600;48.568;7.870;2023-03-03T03:06:53;34.63;;;22.47;;
7116;SDS011;3600;48.568;7.870;2023-03-03T03:09:21;36.63;;;23.73;;
7116;SDS011;3600;48.568;7.870;2023-03-03T03:11:49;34.03;;;23.47;;
7116;SDS011;3600;48.568;7.870;2023-03-03T03:14:16;32.87;;;21.97;;
7116;SDS011;3600;48.568;7.870;2023-03-03T03:16:43;34.17;;;23.77;;
7116;SDS011;3600;48.568;7.870;2023-03-03T03:19:10;33.20;;;22.80;;
7116;SDS011;3600;48.568;7.870;2023-03-03T03:21:37;35.40;;;23.57;;
7116;SDS011;3600;48.568;7.870;2023-03-03T03:24:03;33.87;;;23.10;;
7116;SDS011;3600;48.568;7.870;2023-03-03T03:26:30;37.40;;;23.73;;
7116;SDS011;3600;48.568;7.870;2023-03-03T03:28:57;35.97;;;22.13;;
7116;SDS011;3600;48.568;7.870;2023-03-03T03:31:24;32.37;;;21.77;;
7116;SDS011;3600;48.568;7.870;2023-03-03T03:33:51;31.80;;;21.77;;
7116;SDS011;3600;48.568;7.870;2023-03-03T03:36:18;34.60;;;22.37;;
7116;SDS011;3600;48.568;7.870;2023-03-03T03:38:44;33.67;;;21.97;;
7116;SDS011;3600;48.568;7.870;2023-03-03T03:41:11;29.37;;;20.23;;
7116;SDS011;3600;48.568;7.870;2023-03-03T03:43:39;33.53;;;21.50;;
7116;SDS011;3600;48.568;7.870;2023-03-03T03:46:05;31.57;;;21.07;;
7116;SDS011;3600;48.568;7.870;2023-03-03T03:48:33;38.50;;;21.63;;
7116;SDS011;3600;48.568;7.870;2023-03-03T03:51:00;41.17;;;26.63;;
7116;SDS011;3600;48.568;7.870;2023-03-03T03:53:27;37.23;;;25.33;;
7116;SDS011;3600;48.568;7.870;2023-03-03T03:55:54;40.27;;;24.63;;
7116;SDS011;3600;48.568;7.870;2023-03-03T03:58:21;40.77;;;26.37;;
7116;SDS011;3600;48.568;7.870;2023-03-03T04:00:48;40.83;;;26.00;;
7116;SDS011;3600;48.568;7.870;2023-03-03T04:03:15;36.77;;;24.37;;
7116;SDS011;3600;48.568;7.870;2023-03-03T04:05:42;36.90;;;24.27;;
7116;SDS011;3600;48.568;7.870;2023-03-03T04:08:09;39.30;;;25.20;;
7116;SDS011;3600;48.568;7.870;2023-03-03T04:10:36;44.07;;;28.03;;
7116;SDS011;3600;48.568;7.870;2023-03-03T04:13:04;36.77;;;25.67;;
7116;SDS011;3600;48.568;7.870;2023-03-03T04:15:30;38.67;;;23.33;;
7116;SDS011;3600;48.568;7.870;2023-03-03T04:17:57;38.30;;;23.97;;
7116;SDS011;3600;48.568;7.870;2023-03-03T04:20:24;36.63;;;22.70;;
7116;SDS011;3600;48.568;7.870;2023-03-03T04:22:51;37.03;;;22.73;;
7116;SDS011;3600;48.568;7.870;2023-03-03T04:25:18;31.10;;;22.00;;
7116;SDS011;3600;48.568;7.870;2023-03-03T04:27:44;32.43;;;21.10;;
7116;SDS011;3600;48.568;7.870;2023-03-03T04:30:12;33.83;;;21.40;;
7116;SDS011;3600;48.568;7.870;2023-03-03T04:32:40;36.70;;;24.43;;
7116;SDS011;3600;48.568;7.870;2023-03-03T04:35:07;37.60;;;23.80;;
7116;SDS011;3600;48.568;7.870;2023-03-03T04:37:34;33.07;;;21.57;;
7116;SDS011;3600;48.568;7.870;2023-03-03T04:40:03;32.93;;;22.57;;
7116;SDS011;3600;48.568;7.870;2023-03-03T04:42:33;39.20;;;21.50;;
7116;SDS011;3600;48.568;7.870;2023-03-03T04:45:00;35.33;;;22.30;;
7116;SDS011;3600;48.568;7.870;2023-03-03T04:47:28;34.00;;;21.70;;
7116;SDS011;3600;48.568;7.870;2023-03-03T04:49:54;37.57;;;22.63;;
7116;SDS011;3600;48.568;7.870;2023-03-03T04:52:21;32.87;;;23.57;;
7116;SDS011;3600;48.568;7.870;2023-03-03T04:54:48;44.83;;;30.90;;
7116;SDS011;3600;48.568;7.870;2023-03-03T04:57:14;50.90;;;33.10;;
7116;SDS011;3600;48.568;7.870;2023-03-03T04:59:41;50.03;;;30.47;;
7116;SDS011;3600;48.568;7.870;2023-03-03T05:02:08;48.33;;;29.20;;
7116;SDS011;3600;48.568;7.870;2023-03-03T05:04:35;43.83;;;30.03;;
7116;SDS011;3600;48.568;7.870;2023-03-03T05:07:02;40.67;;;27.57;;
7116;SDS011;3600;48.568;7.870;2023-03-03T05:09:29;39.03;;;27.47;;
7116;SDS011;3600;48.568;7.870;2023-03-03T05:11:56;39.73;;;26.80;;
7116;SDS011;3600;48.568;7.870;2023-03-03T05:14:22;39.20;;;27.67;;
7116;SDS011;3600;48.568;7.870;2023-03-03T05:16:49;36.00;;;24.33;;
7116;SDS011;3600;48.568;7.870;2023-03-03T05:19:16;38.50;;;25.80;;
7116;SDS011;3600;48.568;7.870;2023-03-03T05:21:43;37.17;;;24.00;;
7116;SDS011;3600;48.568;7.870;2023-03-03T05:24:11;35.80;;;24.50;;
7116;SDS011;3600;48.568;7.870;2023-03-03T05:26:39;38.27;;;23.37;;
7116;SDS011;3600;48.568;7.870;2023-03-03T05:29:07;38.53;;;26.00;;
7116;SDS011;3600;48.568;7.870;2023-03-03T05:31:35;38.80;;;23.47;;
7116;SDS011;3600;48.568;7.870;2023-03-03T05:34:02;34.13;;;22.17;;
7116;SDS011;3600;48.568;7.870;2023-03-03T05:36:28;36.47;;;23.83;;
7116;SDS011;3600;48.568;7.870;2023-03-03T05:38:55;37.80;;;24.13;;
7116;SDS011;3600;48.568;7.870;2023-03-03T05:41:22;35.73;;;23.27;;
7116;SDS011;3600;48.568;7.870;2023-03-03T05:43:49;33.43;;;22.63;;
7116;SDS011;3600;48.568;7.870;2023-03-03T05:46:16;38.03;;;25.47;;
7116;SDS011;3600;48.568;7.870;2023-03-03T05:48:43;38.37;;;27.03;;
7116;SDS011;3600;48.568;7.870;2023-03-03T05:51:10;37.17;;;24.33;;
7116;SDS011;3600;48.568;7.870;2023-03-03T05:53:37;40.93;;;23.53;;
7116;SDS011;3600;48.568;7.870;2023-03-03T05:56:04;34.70;;;23.70;;
7116;SDS011;3600;48.568;7.870;2023-03-03T05:58:31;35.87;;;23.47;;
7116;SDS011;3600;48.568;7.870;2023-03-03T06:00:58;35.87;;;22.97;;
7116;SDS011;3600;48.568;7.870;2023-03-03T06:03:25;36.63;;;22.50;;
7116;SDS011;3600;48.568;7.870;2023-03-03T06:05:52;35.50;;;23.30;;
7116;SDS011;3600;48.568;7.870;2023-03-03T06:08:19;36.30;;;23.97;;
7116;SDS011;3600;48.568;7.870;2023-03-03T06:10:46;35.30;;;24.33;;
7116;SDS011;3600;48.568;7.870;2023-03-03T06:13:13;33.80;;;22.77;;
7116;SDS011;3600;48.568;7.870;2023-03-03T06:15:39;37.23;;;23.43;;
7116;SDS011;3600;48.568;7.870;2023-03-03T06:18:06;40.30;;;24.73;;
7116;SDS011;3600;48.568;7.870;2023-03-03T06:20:33;38.67;;;23.70;;
7116;SDS011;3600;48.568;7.870;2023-03-03T06:23:00;40.47;;;24.20;;
7116;SDS011;3600;48.568;7.870;2023-03-03T06:25:27;40.03;;;24.17;;
7116;SDS011;3600;48.568;7.870;2023-03-03T06:27:54;42.63;;;23.87;;
7116;SDS011;3600;48.568;7.870;2023-03-03T06:30:21;42.93;;;23.67;;
7116;SDS011;3600;48.568;7.870;2023-03-03T06:32:48;44.93;;;24.37;;
7116;SDS011;3600;48.568;7.870;2023-03-03T06:35:14;36.00;;;23.73;;
7116;SDS011;3600;48.568;7.870;2023-03-03T06:37:41;40.07;;;23.40;;
7116;SDS011;3600;48.568;7.870;2023-03-03T06:40:08;34.43;;;24.30;;
7116;SDS011;3600;48.568;7.870;2023-03-03T06:42:35;34.97;;;25.20;;
7116;SDS011;3600;48.568;7.870;2023-03-03T06:45:02;40.77;;;25.43;;
7116;SDS011;3600;48.568;7.870;2023-03-03T06:47:29;46.20;;;25.50;;
7116;SDS011;3600;48.568;7.870;2023-03-03T06:49:56;40.30;;;25.43;;
7116;SDS011;3600;48.568;7.870;2023-03-03T06:52:24;39.37;;;23.43;;
7116;SDS011;3600;48.568;7.870;2023-03-03T06:54:52;36.50;;;23.57;;
7116;SDS011;3600;48.568;7.870;2023-03-03T06:57:25;36.10;;;23.73;;
7116;SDS011;3600;48.568;7.870;2023-03-03T06:59:54;36.03;;;23.03;;
7116;SDS011;3600;48.568;7.870;2023-03-03T07:02:24;34.13;;;23.30;;
7116;SDS011;3600;48.568;7.870;2023-03-03T07:04:52;36.20;;;23.20;;
7116;SDS011;3600;48.568;7.870;2023-03-03T07:07:22;37.87;;;23.60;;
7116;SDS011;3600;48.568;7.870;2023-03-03T07:09:54;40.37;;;24.13;;
7116;SDS011;3600;48.568;7.870;2023-03-03T07:12:23;33.37;;;22.93;;
7116;SDS011;3600;48.568;7.870;2023-03-03T07:15:12;35.97;;;24.20;;
7116;SDS011;3600;48.568;7.870;2023-03-03T07:17:54;36.90;;;23.63;;
7116;SDS011;3600;48.568;7.870;2023-03-03T07:23:08;35.97;;;22.80;;
7116;SDS011;3600;48.568;7.870;2023-03-03T07:25:53;34.33;;;22.70;;
7116;SDS011;3600;48.568;7.870;2023-03-03T07:28:24;35.07;;;23.50;;
7116;SDS011;3600;48.568;7.870;2023-03-03T07:30:54;35.00;;;23.23;;
7116;SDS011;3600;48.568;7.870;2023-03-03T07:33:26;37.43;;;24.33;;
7116;SDS011;3600;48.568;7.870;2023-03-03T07:35:57;42.70;;;26.70;;
7116;SDS011;3600;48.568;7.870;2023-03-03T07:38:39;45.53;;;28.13;;
7116;SDS011;3600;48.568;7.870;2023-03-03T07:41:14;41.43;;;26.10;;
7116;SDS011;3600;48.568;7.870;2023-03-03T07:43:49;35.10;;;23.23;;
7116;SDS011;3600;48.568;7.870;2023-03-03T07:49:12;38.63;;;25.03;;
7116;SDS011;3600;48.568;7.870;2023-03-03T07:51:41;41.17;;;25.47;;
7116;SDS011;3600;48.568;7.870;2023-03-03T07:54:17;41.73;;;26.60;;
7116;SDS011;3600;48.568;7.870;2023-03-03T07:57:01;36.53;;;25.20;;
7116;SDS011;3600;48.568;7.870;2023-03-03T07:59:40;39.07;;;24.60;;
7116;SDS011;3600;48.568;7.870;2023-03-03T08:04:53;37.43;;;24.43;;
7116;SDS011;3600;48.568;7.870;2023-03-03T08:07:21;37.87;;;23.50;;
7116;SDS011;3600;48.568;7.870;2023-03-03T08:09:49;35.57;;;24.97;;
7116;SDS011;3600;48.568;7.870;2023-03-03T08:12:24;38.13;;;23.50;;
7116;SDS011;3600;48.568;7.870;2023-03-03T08:15:01;38.93;;;24.80;;
7116;SDS011;3600;48.568;7.870;2023-03-03T08:17:48;36.13;;;22.60;;
7116;SDS011;3600;48.568;7.870;2023-03-03T08:20:50;37.43;;;23.27;;
7116;SDS011;3600;48.568;7.870;2023-03-03T08:23:13;33.90;;;22.30;;
7116;SDS011;3600;48.568;7.870;2023-03-03T08:25:41;31.07;;;21.50;;
7116;SDS011;3600;48.568;7.870;2023-03-03T08:28:09;31.83;;;21.93;;
7116;SDS011;3600;48.568;7.870;2023-03-03T08:30:37;33.03;;;22.47;;
7116;SDS011;3600;48.568;7.870;2023-03-03T08:33:04;41.07;;;22.70;;
7116;SDS011;3600;48.568;7.870;2023-03-03T08:35:31;33.67;;;22.23;;
7116;SDS011;3600;48.568;7.870;2023-03-03T08:37:58;41.87;;;25.83;;
7116;SDS011;3600;48.568;7.870;2023-03-03T08:40:25;36.60;;;25.57;;
7116;SDS011;3600;48.568;7.870;2023-03-03T08:42:52;68.53;;;42.63;;
7116;SDS011;3600;48.568;7.870;2023-03-03T08:45:19;36.77;;;22.67;;
7116;SDS011;3600;48.568;7.870;2023-03-03T08:47:46;36.63;;;23.00;;
7116;SDS011;3600;48.568;7.870;2023-03-03T08:50:13;43.73;;;23.27;;
7116;SDS011;3600;48.568;7.870;2023-03-03T08:52:40;33.17;;;21.93;;
7116;SDS011;3600;48.568;7.870;2023-03-03T08:55:07;37.13;;;23.03;;
7116;SDS011;3600;48.568;7.870;2023-03-03T08:57:34;35.13;;;23.23;;
7116;SDS011;3600;48.568;7.870;2023-03-03T09:00:01;36.23;;;23.83;;
7116;SDS011;3600;48.568;7.870;2023-03-03T09:02:28;38.80;;;25.13;;
7116;SDS011;3600;48.568;7.870;2023-03-03T09:04:54;41.00;;;27.47;;
7116;SDS011;3600;48.568;7.870;2023-03-03T09:07:21;41.53;;;26.40;;
7116;SDS011;3600;48.568;7.870;2023-03-03T09:09:48;39.50;;;26.80;;
7116;SDS011;3600;48.568;7.870;2023-03-03T09:12:16;42.83;;;26.53;;
7116;SDS011;3600;48.568;7.870;2023-03-03T09:15:12;41.17;;;25.53;;
7116;SDS011;3600;48.568;7.870;2023-03-03T09:17:46;40.47;;;26.83;;
7116;SDS011;3600;48.568;7.870;2023-03-03T09:20:21;37.63;;;26.70;;
7116;SDS011;3600;48.568;7.870;2023-03-03T09:23:16;37.73;;;25.33;;
7116;SDS011;3600;48.568;7.870;2023-03-03T09:25:53;45.63;;;26.10;;
7116;SDS011;3600;48.568;7.870;2023-03-03T09:30:58;37.03;;;25.70;;
7116;SDS011;3600;48.568;7.870;2023-03-03T09:35:58;38.73;;;26.07;;
7116;SDS011;3600;48.568;7.870;2023-03-03T09:38:27;37.60;;;27.23;;
7116;SDS011;3600;48.568;7.870;2023-03-03T09:49:08;37.33;;;25.77;;
7116;SDS011;3600;48.568;7.870;2023-03-03T09:51:59;36.10;;;26.93;;
7116;SDS011;3600;48.568;7.870;2023-03-03T10:00:41;37.83;;;25.17;;
7116;SDS011;3600;48.568;7.870;2023-03-03T10:12:11;37.90;;;25.57;;
7116;SDS011;3600;48.568;7.870;2023-03-03T10:14:55;39.33;;;27.27;;
7116;SDS011;3600;48.568;7.870;2023-03-03T10:18:23;35.63;;;26.40;;
7116;SDS011;3600;48.568;7.870;2023-03-03T10:20:35;35.07;;;25.13;;
7116;SDS011;3600;48.568;7.870;2023-03-03T10:23:28;34.80;;;25.73;;
7116;SDS011;3600;48.568;7.870;2023-03-03T10:32:06;34.03;;;23.57;;
7116;SDS011;3600;48.568;7.870;2023-03-03T10:40:34;30.30;;;22.37;;
7116;SDS011;3600;48.568;7.870;2023-03-03T10:46:02;37.87;;;23.77;;
7116;SDS011;3600;48.568;7.870;2023-03-03T10:48:44;33.83;;;23.63;;
7116;SDS011;3600;48.568;7.870;2023-03-03T10:51:33;33.77;;;22.53;;
7116;SDS011;3600;48.568;7.870;2023-03-03T11:02:11;34.13;;;24.43;;
7116;SDS011;3600;48.568;7.870;2023-03-03T11:07:33;38.13;;;26.10;;
7116;SDS011;3600;48.568;7.870;2023-03-03T11:10:12;34.03;;;24.23;;
7116;SDS011;3600;48.568;7.870;2023-03-03T11:13:04;37.87;;;27.23;;
7116;SDS011;3600;48.568;7.870;2023-03-03T11:15:50;42.10;;;27.03;;
7116;SDS011;3600;48.568;7.870;2023-03-03T11:21:37;40.80;;;27.37;;
7116;SDS011;3600;48.568;7.870;2023-03-03T11:27:32;45.33;;;28.40;;
7116;SDS011;3600;48.568;7.870;2023-03-03T11:36:16;41.57;;;28.90;;
7116;SDS011;3600;48.568;7.870;2023-03-03T11:39:07;42.07;;;29.40;;
7116;SDS011;3600;48.568;7.870;2023-03-03T11:41:40;40.73;;;27.77;;
7116;SDS011;3600;48.568;7.870;2023-03-03T11:44:28;39.17;;;26.80;;
7116;SDS011;3600;48.568;7.870;2023-03-03T11:46:58;37.00;;;25.73;;
7116;SDS011;3600;48.568;7.870;2023-03-03T11:52:25;37.47;;;25.80;;
7116;SDS011;3600;48.568;7.870;2023-03-03T11:55:06;32.80;;;25.27;;
7116;SDS011;3600;48.568;7.870;2023-03-03T11:57:41;37.23;;;25.07;;
7116;SDS011;3600;48.568;7.870;2023-03-03T12:00:20;34.07;;;24.70;;
7116;SDS011;3600;48.568;7.870;2023-03-03T12:03:07;41.47;;;26.47;;
7116;SDS011;3600;48.568;7.870;2023-03-03T12:11:26;41.03;;;27.57;;
7116;SDS011;3600;48.568;7.870;2023-03-03T12:14:08;40.73;;;27.97;;
7116;SDS011;3600;48.568;7.870;2023-03-03T12:16:48;39.07;;;28.03;;
7116;SDS011;3600;48.568;7.870;2023-03-03T12:22:16;38.87;;;25.83;;
7116;SDS011;3600;48.568;7.870;2023-03-03T12:33:12;40.60;;;27.13;;
7116;SDS011;3600;48.568;7.870;2023-03-03T12:36:08;42.40;;;27.30;;
7116;SDS011;3600;48.568;7.870;2023-03-03T12:38:48;38.80;;;27.10;;
7116;SDS011;3600;48.568;7.870;2023-03-03T12:44:52;34.43;;;24.80;;
7116;SDS011;3600;48.568;7.870;2023-03-03T12:53:37;37.07;;;25.20;;
7116;SDS011;3600;48.568;7.870;2023-03-03T12:56:17;36.60;;;24.83;;
7116;SDS011;3600;48.568;7.870;2023-03-03T13:02:28;38.03;;;27.03;;
7116;SDS011;3600;48.568;7.870;2023-03-03T13:11:07;33.57;;;23.87;;
7116;SDS011;3600;48.568;7.870;2023-03-03T13:16:38;34.70;;;23.47;;
7116;SDS011;3600;48.568;7.870;2023-03-03T13:19:10;31.60;;;22.20;;
7116;SDS011;3600;48.568;7.870;2023-03-03T13:22:06;31.10;;;21.97;;
7116;SDS011;3600;48.568;7.870;2023-03-03T13:24:50;28.23;;;21.07;;
7116;SDS011;3600;48.568;7.870;2023-03-03T13:27:44;27.57;;;21.07;;
7116;SDS011;3600;48.568;7.870;2023-03-03T13:30:18;38.83;;;22.03;;
7116;SDS011;3600;48.568;7.870;2023-03-03T13:35:55;26.47;;;20.43;;
7116;SDS011;3600;48.568;7.870;2023-03-03T13:38:36;26.53;;;20.73;;
7116;SDS011;3600;48.568;7.870;2023-03-03T13:44:03;30.27;;;20.03;;
7116;SDS011;3600;48.568;7.870;2023-03-03T13:46:48;26.97;;;19.63;;
7116;SDS011;3600;48.568;7.870;2023-03-03T13:49:27;32.40;;;20.37;;
7116;SDS011;3600;48.568;7.870;2023-03-03T13:52:20;23.50;;;18.33;;
7116;SDS011;3600;48.568;7.870;2023-03-03T14:03:31;26.83;;;20.10;;
7116;SDS011;3600;48.568;7.870;2023-03-03T14:06:21;27.10;;;19.35;;
7116;SDS011;3600;48.568;7.870;2023-03-03T14:11:29;25.77;;;20.88;;
7116;SDS011;3600;48.568;7.870;2023-03-03T14:16:50;25.75;;;18.48;;
7116;SDS011;3600;48.568;7.870;2023-03-03T14:19:36;27.60;;;19.73;;
7116;SDS011;3600;48.568;7.870;2023-03-03T14:25:04;23.88;;;17.75;;
7116;SDS011;3600;48.568;7.870;2023-03-03T14:27:38;26.42;;;20.00;;
7116;SDS011;3600;48.568;7.870;2023-03-03T14:35:28;27.70;;;18.35;;
7116;SDS011;3600;48.568;7.870;2023-03-03T14:38:02;25.17;;;18.63;;
7116;SDS011;3600;48.568;7.870;2023-03-03T14:40:37;24.45;;;18.90;;
7116;SDS011;3600;48.568;7.870;2023-03-03T14:49:01;28.60;;;19.40;;
7116;SDS011;3600;48.568;7.870;2023-03-03T14:51:43;22.48;;;17.42;;
7116;SDS011;3600;48.568;7.870;2023-03-03T14:54:20;22.70;;;17.80;;
7116;SDS011;3600;48.568;7.870;2023-03-03T14:59:26;27.52;;;18.40;;
7116;SDS011;3600;48.568;7.870;2023-03-03T15:02:23;24.55;;;18.42;;
7116;SDS011;3600;48.568;7.870;2023-03-03T15:07:53;22.63;;;18.88;;
7116;SDS011;3600;48.568;7.870;2023-03-03T15:10:33;25.80;;;19.85;;
7116;SDS011;3600;48.568;7.870;2023-03-03T15:13:08;25.42;;;18.10;;
7116;SDS011;3600;48.568;7.870;2023-03-03T15:15:36;26.30;;;18.88;;
7116;SDS011;3600;48.568;7.870;2023-03-03T15:18:26;26.07;;;19.70;;
7116;SDS011;3600;48.568;7.870;2023-03-03T15:29:06;26.13;;;18.48;;
7116;SDS011;3600;48.568;7.870;2023-03-03T15:34:32;23.55;;;17.60;;
7116;SDS011;3600;48.568;7.870;2023-03-03T15:45:25;26.30;;;18.57;;
7116;SDS011;3600;48.568;7.870;2023-03-03T15:51:20;28.77;;;19.92;;
7116;SDS011;3600;48.568;7.870;2023-03-03T15:57:28;29.27;;;20.70;;
7116;SDS011;3600;48.568;7.870;2023-03-03T16:00:42;25.48;;;19.92;;
7116;SDS011;3600;48.568;7.870;2023-03-03T16:03:15;25.85;;;18.67;;
7116;SDS011;3600;48.568;7.870;2023-03-03T16:06:02;23.05;;;18.25;;
7116;SDS011;3600;48.568;7.870;2023-03-03T16:17:13;28.40;;;19.83;;
7116;SDS011;3600;48.568;7.870;2023-03-03T16:25:28;27.42;;;19.67;;
7116;SDS011;3600;48.568;7.870;2023-03-03T16:28:39;27.97;;;19.97;;
7116;SDS011;3600;48.568;7.870;2023-03-03T16:31:28;28.07;;;20.23;;
7116;SDS011;3600;48.568;7.870;2023-03-03T16:34:11;26.37;;;19.80;;
7116;SDS011;3600;48.568;7.870;2023-03-03T16:39:19;28.03;;;19.53;;
7116;SDS011;3600;48.568;7.870;2023-03-03T16:42:03;28.83;;;19.87;;
7116;SDS011;3600;48.568;7.870;2023-03-03T16:45:11;27.80;;;19.60;;
7116;SDS011;3600;48.568;7.870;2023-03-03T16:50:58;32.03;;;20.20;;
7116;SDS011;3600;48.568;7.870;2023-03-03T16:53:50;28.30;;;19.77;;
7116;SDS011;3600;48.568;7.870;2023-03-03T16:56:20;28.43;;;19.87;;
7116;SDS011;3600;48.568;7.870;2023-03-03T17:01:24;30.13;;;20.20;;
7116;SDS011;3600;48.568;7.870;2023-03-03T17:06:53;48.37;;;32.50;;
7116;SDS011;3600;48.568;7.870;2023-03-03T17:14:47;33.13;;;22.90;;
7116;SDS011;3600;48.568;7.870;2023-03-03T17:17:32;30.90;;;22.73;;
7116;SDS011;3600;48.568;7.870;2023-03-03T17:26:02;33.57;;;22.67;;
7116;SDS011;3600;48.568;7.870;2023-03-03T17:33:57;44.83;;;28.53;;
7116;SDS011;3600;48.568;7.870;2023-03-03T17:36:35;35.03;;;25.23;;
7116;SDS011;3600;48.568;7.870;2023-03-03T17:44:31;52.30;;;35.13;;
7116;SDS011;3600;48.568;7.870;2023-03-03T17:47:10;53.60;;;38.83;;
7116;SDS011;3600;48.568;7.870;2023-03-03T17:49:50;49.00;;;34.60;;
7116;SDS011;3600;48.568;7.870;2023-03-03T17:52:39;50.80;;;30.07;;
7116;SDS011;3600;48.568;7.870;2023-03-03T18:20:39;36.07;;;24.47;;
7116;SDS011;3600;48.568;7.870;2023-03-03T18:23:19;37.27;;;26.40;;
7116;SDS011;3600;48.568;7.870;2023-03-03T18:31:44;47.13;;;31.20;;
7116;SDS011;3600;48.568;7.870;2023-03-03T18:37:32;90.60;;;50.17;;
7116;SDS011;3600;48.568;7.870;2023-03-03T18:50:32;35.13;;;24.43;;
7116;SDS011;3600;48.568;7.870;2023-03-03T18:53:12;37.93;;;25.63;;
7116;SDS011;3600;48.568;7.870;2023-03-03T18:55:59;34.47;;;23.83;;
7116;SDS011;3600;48.568;7.870;2023-03-03T18:58:29;34.07;;;23.97;;
7116;SDS011;3600;48.568;7.870;2023-03-03T19:09:09;36.63;;;23.90;;
7116;SDS011;3600;48.568;7.870;2023-03-03T19:16:56;38.20;;;24.83;;
7116;SDS011;3600;48.568;7.870;2023-03-03T19:22:38;39.67;;;26.03;;
7116;SDS011;3600;48.568;7.870;2023-03-03T19:25:15;37.00;;;25.00;;
7116;SDS011;3600;48.568;7.870;2023-03-03T19:28:02;40.43;;;26.10;;
7116;SDS011;3600;48.568;7.870;2023-03-03T19:30:49;36.43;;;23.63;;
7116;SDS011;3600;48.568;7.870;2023-03-03T19:41:52;31.17;;;18.97;;
7116;SDS011;3600;48.568;7.870;2023-03-03T19:47:02;27.97;;;18.17;;
7116;SDS011;3600;48.568;7.870;2023-03-03T19:52:36;25.10;;;16.80;;
7116;SDS011;3600;48.568;7.870;2023-03-03T20:00:29;27.70;;;17.87;;
7116;SDS011;3600;48.568;7.870;2023-03-03T20:11:28;25.33;;;15.67;;
7116;SDS011;3600;48.568;7.870;2023-03-03T20:16:46;25.47;;;16.30;;
7116;SDS011;3600;48.568;7.870;2023-03-03T20:19:20;26.10;;;16.10;;
7116;SDS011;3600;48.568;7.870;2023-03-03T20:27:54;22.03;;;15.70;;
7116;SDS011;3600;48.568;7.870;2023-03-03T20:33:10;23.67;;;15.00;;
7116;SDS011;3600;48.568;7.870;2023-03-03T20:35:51;25.67;;;15.57;;
7116;SDS011;3600;48.568;7.870;2023-03-03T20:41:12;26.33;;;15.23;;
7116;SDS011;3600;48.568;7.870;2023-03-03T20:47:07;25.03;;;15.80;;
7116;SDS011;3600;48.568;7.870;2023-03-03T20:50:04;29.83;;;16.00;;
7116;SDS011;3600;48.568;7.870;2023-03-03T20:57:55;22.90;;;15.50;;
7116;SDS011;3600;48.568;7.870;2023-03-03T21:05:58;24.90;;;14.60;;
7116;SDS011;3600;48.568;7.870;2023-03-03T21:08:46;21.60;;;14.53;;
7116;SDS011;3600;48.568;7.870;2023-03-03T21:11:23;22.23;;;15.23;;
7116;SDS011;3600;48.568;7.870;2023-03-03T21:14:15;23.57;;;15.37;;
7116;SDS011;3600;48.568;7.870;2023-03-03T21:19:50;24.07;;;15.10;;
7116;SDS011;3600;48.568;7.870;2023-03-03T21:22:16;25.10;;;15.33;;
7116;SDS011;3600;48.568;7.870;2023-03-03T21:24:47;23.90;;;14.70;;
7116;SDS011;3600;48.568;7.870;2023-03-03T21:27:29;22.90;;;14.93;;
7116;SDS011;3600;48.568;7.870;2023-03-03T21:32:35;21.20;;;14.63;;